Time;durP1;ratioP1;P1;durP2;ratioP2;P2;SDS_P1;SDS_P2;PMS_P1;PMS_P2;Temp;Humidity;BMP_temperature;BMP_pressure;BME280_temperature;BME280_humidity;BME280_pressure;Samples;Min_cycle;Max_cycle;Signal;HPM_P1;HPM_P2
2022/06/26 00:02:14;;;;;;;3.47;2.38;;;20.80;1.00;;;;;;7380387;19;20018;-60
2022/06/26 00:04:44;;;;;;;3.20;2.38;;;20.60;1.00;;;;;;7358811;19;20018;-62
2022/06/26 00:07:15;;;;;;;3.00;2.40;;;20.60;1.00;;;;;;7356980;19;20744;-62
2022/06/26 00:09:48;;;;;;;3.92;2.53;;;20.50;1.00;;;;;;7362842;19;20017;-62
2022/06/26 00:12:18;;;;;;;3.88;2.58;;;20.40;1.00;;;;;;7360981;19;20082;-60
2022/06/26 00:14:47;;;;;;;4.90;2.65;;;20.30;1.00;;;;;;7360699;19;20014;-60
2022/06/26 00:17:17;;;;;;;3.22;2.47;;;20.20;1.00;;;;;;7378385;19;20010;-60
2022/06/26 00:19:47;;;;;;;4.05;2.50;;;20.10;1.00;;;;;;7362399;19;20010;-61
2022/06/26 00:22:17;;;;;;;3.63;2.70;;;20.20;1.00;;;;;;7357875;19;20010;-61
2022/06/26 00:24:50;;;;;;;3.65;3.30;;;20.20;1.00;;;;;;7359622;19;20010;-62
2022/06/26 00:27:19;;;;;;;4.18;3.17;;;20.10;1.00;;;;;;7356286;19;20475;-61
2022/06/26 00:29:49;;;;;;;5.10;3.63;;;20.10;1.00;;;;;;7362678;19;20045;-61
2022/06/26 00:32:19;;;;;;;3.97;3.40;;;20.10;1.00;;;;;;7382306;19;20025;-60
2022/06/26 00:34:49;;;;;;;5.07;3.80;;;20.00;1.00;;;;;;7360384;19;20013;-60
2022/06/26 00:37:19;;;;;;;6.05;3.67;;;20.00;1.00;;;;;;7356857;19;20006;-61
2022/06/26 00:39:51;;;;;;;5.43;4.00;;;20.00;1.00;;;;;;7362417;19;20011;-61
2022/06/26 00:42:21;;;;;;;3.33;2.50;;;20.00;1.00;;;;;;7359961;19;20021;-61
2022/06/26 00:44:55;;;;;;;4.18;3.15;;;20.10;1.00;;;;;;7359448;19;20018;-61
2022/06/26 00:47:26;;;;;;;4.28;2.63;;;20.10;1.00;;;;;;7358284;19;20017;-60
2022/06/26 00:49:56;;;;;;;2.85;2.35;;;20.20;1.00;;;;;;7383052;19;20014;-60
2022/06/26 00:52:26;;;;;;;2.92;2.42;;;20.30;1.00;;;;;;7358478;19;20596;-61
2022/06/26 00:54:59;;;;;;;3.63;2.38;;;20.40;1.00;;;;;;7359741;19;20014;-61
2022/06/26 00:57:28;;;;;;;2.15;1.95;;;20.60;1.00;;;;;;7356037;19;20072;-62
2022/06/26 00:59:59;;;;;;;4.25;2.03;;;20.60;1.00;;;;;;7362302;19;20050;-60
2022/06/26 01:02:29;;;;;;;2.40;1.95;;;20.60;1.00;;;;;;7357709;19;20015;-61
2022/06/26 01:04:59;;;;;;;4.07;1.92;;;20.60;1.00;;;;;;7380260;19;20094;-61
2022/06/26 01:07:29;;;;;;;3.97;1.95;;;20.50;1.00;;;;;;7355831;19;20423;-61
2022/06/26 01:10:01;;;;;;;4.63;2.47;;;20.50;1.00;;;;;;7360850;19;20025;-61
2022/06/26 01:12:31;;;;;;;2.15;1.63;;;20.50;1.00;;;;;;7359602;19;20035;-61
2022/06/26 01:15:02;;;;;;;1.90;1.75;;;20.50;1.00;;;;;;7366697;19;20021;-60
2022/06/26 01:17:32;;;;;;;5.10;1.95;;;20.50;1.00;;;;;;7360567;19;20015;-60
2022/06/26 01:20:02;;;;;;;2.28;2.08;;;20.40;1.00;;;;;;7389537;19;20043;-60
2022/06/26 01:22:35;;;;;;;3.50;2.30;;;20.40;1.00;;;;;;7363830;19;20026;-60
2022/06/26 01:25:05;;;;;;;2.22;2.00;;;20.40;1.00;;;;;;7365715;19;20013;-61
2022/06/26 01:27:43;;;;;;;5.35;1.92;;;20.40;1.00;;;;;;7362153;19;20011;-60
2022/06/26 01:30:14;;;;;;;4.40;2.10;;;20.30;1.00;;;;;;7367348;19;20010;-60
2022/06/26 01:32:45;;;;;;;4.85;2.20;;;20.30;1.00;;;;;;7365583;19;20023;-61
2022/06/26 01:35:15;;;;;;;2.60;2.00;;;20.30;1.00;;;;;;7387654;19;20017;-62
2022/06/26 01:37:47;;;;;;;4.13;2.35;;;20.30;1.00;;;;;;7363213;19;20032;-61
2022/06/26 01:40:17;;;;;;;3.17;1.90;;;20.30;1.00;;;;;;7367280;19;20017;-60
2022/06/26 01:42:47;;;;;;;3.47;2.20;;;20.20;1.00;;;;;;7364313;19;20794;-61
2022/06/26 01:45:17;;;;;;;2.85;2.08;;;20.10;1.00;;;;;;7365142;19;20017;-60
2022/06/26 01:47:47;;;;;;;3.42;2.10;;;20.10;1.00;;;;;;7364017;19;20019;-61
2022/06/26 01:50:17;;;;;;;1.80;1.70;;;20.10;1.00;;;;;;7389493;19;20007;-59
2022/06/26 01:52:49;;;;;;;2.50;2.03;;;20.10;1.00;;;;;;7364409;19;20016;-60
2022/06/26 01:55:19;;;;;;;2.45;2.00;;;20.00;1.00;;;;;;7363862;19;20014;-60
2022/06/26 01:57:49;;;;;;;2.05;1.85;;;20.00;1.00;;;;;;7363040;19;20085;-60
2022/06/26 02:00:19;;;;;;;1.88;1.55;;;19.90;1.00;;;;;;7366765;19;20013;-61
2022/06/26 02:02:49;;;;;;;2.05;1.65;;;19.90;1.00;;;;;;7363030;19;20021;-61
2022/06/26 02:05:19;;;;;;;1.90;1.70;;;19.90;1.00;;;;;;7386187;19;20011;-61
2022/06/26 02:07:51;;;;;;;2.25;1.52;;;19.90;1.00;;;;;;7362640;19;20011;-61
2022/06/26 02:15:48;;;;;;;2.17;1.52;;;19.70;1.00;;;;;;7364763;19;20018;-62
2022/06/26 02:18:18;;;;;;;1.88;1.40;;;19.70;1.00;;;;;;7363121;19;20025;-61
2022/06/26 02:20:48;;;;;;;3.42;1.40;;;19.70;1.00;;;;;;7366781;19;20078;-61
2022/06/26 02:23:22;;;;;;;2.75;1.45;;;19.70;1.00;;;;;;7381247;19;20037;-61
2022/06/26 02:25:52;;;;;;;3.50;1.40;;;19.60;1.00;;;;;;7365340;19;20017;-61
2022/06/26 02:28:22;;;;;;;1.90;1.20;;;19.60;1.00;;;;;;7361775;19;20014;-60
2022/06/26 02:30:52;;;;;;;1.65;1.05;;;19.60;1.00;;;;;;7365166;19;20010;-60
2022/06/26 02:33:22;;;;;;;1.40;1.30;;;19.50;1.00;;;;;;7360380;19;20011;-60
2022/06/26 02:35:54;;;;;;;3.28;1.38;;;19.50;1.00;;;;;;7365298;19;20019;-60
2022/06/26 02:38:27;;;;;;;1.95;1.05;;;19.40;1.00;;;;;;7370914;19;20042;-61
2022/06/26 02:40:57;;;;;;;1.52;1.17;;;19.40;1.00;;;;;;7387214;19;20489;-60
2022/06/26 02:43:27;;;;;;;1.85;1.27;;;19.40;1.00;;;;;;7358716;19;20011;-61
2022/06/26 02:45:57;;;;;;;2.25;1.10;;;19.40;1.00;;;;;;7364152;19;20021;-61
2022/06/26 02:48:27;;;;;;;2.42;1.30;;;19.30;1.00;;;;;;7361818;19;20482;-61
2022/06/26 02:50:57;;;;;;;1.35;1.00;;;19.30;1.00;;;;;;7365506;19;20759;-61
2022/06/26 02:53:30;;;;;;;1.30;1.20;;;19.30;1.00;;;;;;7360446;19;20090;-61
2022/06/26 02:56:00;;;;;;;3.55;1.35;;;19.20;1.00;;;;;;7384196;19;20489;-61
2022/06/26 02:58:29;;;;;;;1.75;1.52;;;19.10;1.00;;;;;;7361635;19;20031;-60
2022/06/26 03:00:59;;;;;;;2.17;1.40;;;19.20;1.00;;;;;;7365169;19;20608;-60
2022/06/26 03:03:29;;;;;;;2.85;1.10;;;19.20;1.00;;;;;;7358550;19;20017;-60
2022/06/26 03:05:59;;;;;;;1.40;1.02;;;19.20;1.00;;;;;;7364582;19;20056;-60
2022/06/26 03:08:32;;;;;;;1.58;1.20;;;19.30;1.00;;;;;;7362150;19;20010;-61
2022/06/26 03:11:02;;;;;;;2.58;1.02;;;19.30;1.00;;;;;;7384400;19;20113;-61
2022/06/26 03:13:31;;;;;;;2.05;1.20;;;19.20;1.00;;;;;;7359610;19;20006;-61
2022/06/26 03:16:01;;;;;;;1.00;0.90;;;19.20;1.00;;;;;;7362351;19;20021;-61
2022/06/26 03:18:31;;;;;;;1.23;1.02;;;19.10;1.00;;;;;;7360294;19;20021;-60
2022/06/26 03:21:01;;;;;;;5.78;1.30;;;19.20;1.00;;;;;;7364689;19;20514;-61
2022/06/26 03:26:16;;;;;;;2.20;1.20;;;19.20;1.00;;;;;;7384940;19;20016;-61
2022/06/26 03:28:46;;;;;;;2.20;1.33;;;19.20;1.00;;;;;;7360316;19;20031;-61
2022/06/26 03:31:16;;;;;;;2.97;1.27;;;19.10;1.00;;;;;;7362836;19;20019;-60
2022/06/26 03:33:46;;;;;;;1.30;0.93;;;19.10;1.00;;;;;;7359882;19;20011;-59
2022/06/26 03:36:16;;;;;;;1.65;1.10;;;19.20;1.00;;;;;;7361421;19;20016;-61
2022/06/26 03:38:48;;;;;;;2.95;1.20;;;19.30;1.00;;;;;;7360472;19;20589;-61
2022/06/26 03:41:18;;;;;;;1.30;1.20;;;19.40;1.00;;;;;;7386337;19;20015;-60
2022/06/26 03:43:48;;;;;;;2.05;1.38;;;19.30;1.00;;;;;;7358631;19;20010;-61
2022/06/26 03:46:18;;;;;;;3.28;1.30;;;19.20;1.90;;;;;;7361329;19;20490;-60
2022/06/26 03:48:48;;;;;;;1.95;1.40;;;19.50;1.70;;;;;;7359624;19;20014;-60
2022/06/26 03:51:18;;;;;;;1.63;1.40;;;20.70;1.00;;;;;;7364435;19;20470;-60
2022/06/26 03:53:51;;;;;;;2.45;1.50;;;21.10;1.00;;;;;;7359716;19;20881;-61
2022/06/26 03:56:21;;;;;;;1.73;1.27;;;21.80;1.00;;;;;;7384268;19;20380;-61
2022/06/26 03:58:50;;;;;;;2.33;1.20;;;22.00;1.00;;;;;;7360007;19;20010;-60
2022/06/26 04:01:20;;;;;;;1.58;1.05;;;22.30;1.00;;;;;;7362789;19;20078;-60
2022/06/26 04:03:50;;;;;;;2.78;1.00;;;22.50;1.00;;;;;;7358847;19;20383;-60
2022/06/26 04:06:20;;;;;;;2.72;1.30;;;22.90;1.00;;;;;;7361179;19;20010;-61
2022/06/26 04:08:52;;;;;;;0.82;0.60;;;23.40;1.00;;;;;;7358233;19;20014;-60
2022/06/26 04:11:22;;;;;;;1.65;0.80;;;24.20;1.00;;;;;;7384072;19;20014;-61
2022/06/26 04:13:52;;;;;;;2.67;1.00;;;23.80;1.00;;;;;;7360529;19;20014;-60
2022/06/26 04:16:22;;;;;;;2.72;0.73;;;24.10;1.00;;;;;;7360216;19;20029;-60
2022/06/26 04:18:52;;;;;;;1.02;0.95;;;21.60;1.00;;;;;;7359019;19;20014;-61
2022/06/26 04:21:22;;;;;;;1.40;0.85;;;21.20;1.00;;;;;;7361433;19;20563;-61
2022/06/26 04:23:54;;;;;;;1.50;0.70;;;20.90;1.00;;;;;;7359163;19;20461;-60
2022/06/26 04:26:24;;;;;;;2.08;1.00;;;20.60;1.00;;;;;;7371998;19;20010;-60
2022/06/26 04:28:54;;;;;;;2.40;1.10;;;20.60;1.00;;;;;;7381154;19;20018;-60
2022/06/26 04:31:24;;;;;;;2.80;0.90;;;20.30;1.00;;;;;;7360432;19;20077;-60
2022/06/26 04:33:54;;;;;;;2.33;0.70;;;20.40;1.00;;;;;;7359447;19;20018;-61
2022/06/26 04:36:24;;;;;;;0.93;0.85;;;20.20;1.00;;;;;;7361961;19;20421;-60
2022/06/26 04:38:56;;;;;;;1.50;1.00;;;20.30;1.00;;;;;;7358363;19;20019;-60
2022/06/26 04:41:38;;;;;;;0.82;0.70;;;20.50;1.00;;;;;;7361041;19;20369;-61
2022/06/26 04:44:10;;;;;;;1.63;0.80;;;20.30;1.00;;;;;;7381124;19;20011;-61
2022/06/26 04:46:41;;;;;;;1.27;0.80;;;20.30;1.00;;;;;;7360422;19;20027;-59
2022/06/26 04:49:11;;;;;;;0.80;0.80;;;20.20;1.00;;;;;;7367448;19;20022;-61
2022/06/26 04:51:42;;;;;;;1.23;0.90;;;19.90;1.00;;;;;;7367275;19;20043;-61
2022/06/26 04:54:14;;;;;;;1.33;1.00;;;20.00;1.00;;;;;;7366965;19;20022;-61
2022/06/26 04:56:47;;;;;;;2.08;0.80;;;20.00;1.00;;;;;;7366105;19;20010;-60
2022/06/26 04:59:16;;;;;;;1.35;0.80;;;20.20;1.00;;;;;;7388862;19;20014;-60
2022/06/26 05:01:46;;;;;;;0.75;0.73;;;20.30;1.00;;;;;;7365748;19;20017;-60
2022/06/26 05:04:16;;;;;;;1.65;0.80;;;20.30;1.00;;;;;;7363759;19;20014;-61
2022/06/26 05:06:46;;;;;;;1.10;0.88;;;20.20;1.00;;;;;;7367248;19;20492;-61
2022/06/26 05:09:19;;;;;;;1.63;1.42;;;20.10;1.00;;;;;;7365280;19;20057;-60
2022/06/26 05:11:49;;;;;;;1.77;1.20;;;20.10;1.00;;;;;;7366907;19;20006;-61
2022/06/26 05:14:20;;;;;;;3.60;1.00;;;20.20;1.00;;;;;;7388960;19;20082;-61
2022/06/26 05:16:50;;;;;;;3.25;0.90;;;20.30;1.00;;;;;;7364713;19;20451;-61
2022/06/26 05:19:20;;;;;;;1.13;0.77;;;20.50;1.00;;;;;;7366164;19;20018;-61
2022/06/26 05:21:57;;;;;;;2.67;1.00;;;20.70;1.00;;;;;;7365105;19;20089;-60
2022/06/26 05:24:29;;;;;;;1.10;0.93;;;20.70;1.00;;;;;;7365647;19;20020;-61
2022/06/26 05:26:59;;;;;;;1.17;0.90;;;20.60;1.00;;;;;;7364980;19;20021;-60
2022/06/26 05:29:29;;;;;;;1.33;0.90;;;20.60;1.00;;;;;;7366970;19;20010;-62
2022/06/26 05:31:59;;;;;;;1.77;1.00;;;20.50;1.00;;;;;;7387774;19;20010;-62
2022/06/26 05:34:29;;;;;;;1.20;0.85;;;20.80;1.00;;;;;;7365234;19;20014;-60
2022/06/26 05:36:59;;;;;;;2.22;1.10;;;20.80;1.00;;;;;;7365290;19;20021;-60
2022/06/26 05:39:31;;;;;;;1.50;1.10;;;20.80;1.00;;;;;;7366668;19;20014;-60
2022/06/26 05:42:01;;;;;;;1.33;0.98;;;21.00;1.00;;;;;;7366221;19;20062;-61
2022/06/26 05:44:31;;;;;;;1.15;0.90;;;21.00;1.00;;;;;;7364170;19;20030;-61
2022/06/26 05:47:02;;;;;;;2.90;1.00;;;20.90;1.00;;;;;;7385406;19;20019;-61
2022/06/26 05:49:38;;;;;;;2.00;0.93;;;21.00;1.00;;;;;;7366622;19;20354;-61
2022/06/26 05:52:08;;;;;;;1.48;1.10;;;21.10;1.00;;;;;;7364226;19;20010;-61
2022/06/26 05:54:41;;;;;;;1.40;1.20;;;21.20;1.00;;;;;;7365229;19;20094;-61
2022/06/26 05:57:10;;;;;;;2.28;1.48;;;21.30;1.00;;;;;;7362814;19;20022;-61
2022/06/26 05:59:40;;;;;;;1.90;1.10;;;21.30;1.00;;;;;;7363147;19;20014;-61
2022/06/26 06:02:10;;;;;;;1.30;0.80;;;21.50;1.00;;;;;;7386210;19;20522;-60
2022/06/26 06:04:40;;;;;;;2.58;1.00;;;21.50;1.00;;;;;;7363625;19;20082;-61
2022/06/26 06:07:11;;;;;;;2.50;1.35;;;21.50;1.00;;;;;;7363549;19;20012;-61
2022/06/26 06:09:43;;;;;;;1.23;1.05;;;21.30;1.00;;;;;;7365585;19;20011;-62
2022/06/26 06:12:14;;;;;;;3.47;1.38;;;21.40;1.00;;;;;;7364253;19;20090;-61
2022/06/26 06:14:45;;;;;;;2.67;1.40;;;21.50;1.00;;;;;;7364264;19;20007;-60
2022/06/26 06:19:57;;;;;;;2.45;0.88;;;22.10;1.00;;;;;;7365830;19;20026;-60
2022/06/26 06:22:27;;;;;;;1.17;0.80;;;22.60;1.00;;;;;;7362966;19;20018;-60
2022/06/26 06:25:00;;;;;;;1.00;0.80;;;22.60;1.00;;;;;;7362874;19;20011;-60
2022/06/26 06:27:38;;;;;;;2.78;0.80;;;22.70;1.00;;;;;;7362853;19;20011;-60
2022/06/26 06:30:11;;;;;;;1.05;0.70;;;21.80;1.00;;;;;;7365161;19;20013;-60
2022/06/26 06:32:43;;;;;;;1.23;1.00;;;22.70;1.00;;;;;;7363104;19;20025;-60
2022/06/26 06:35:13;;;;;;;1.48;0.70;;;23.40;1.00;;;;;;7385157;19;20018;-61
2022/06/26 06:37:44;;;;;;;0.60;0.60;;;23.60;1.00;;;;;;7362878;19;20014;-61
2022/06/26 06:40:17;;;;;;;1.30;0.68;;;24.00;1.00;;;;;;7364519;19;20014;-61
2022/06/26 06:42:47;;;;;;;3.67;0.70;;;24.30;1.00;;;;;;7364198;19;20369;-61
2022/06/26 06:45:17;;;;;;;1.63;0.70;;;24.00;1.00;;;;;;7362281;19;20017;-60
2022/06/26 06:47:47;;;;;;;1.05;0.70;;;23.30;1.00;;;;;;7362171;19;20323;-60
2022/06/26 06:50:17;;;;;;;1.10;0.80;;;23.40;1.00;;;;;;7386443;19;20050;-60
2022/06/26 06:52:54;;;;;;;0.70;0.60;;;23.10;1.00;;;;;;7361784;19;20019;-61
2022/06/26 06:55:26;;;;;;;0.60;0.60;;;23.40;1.00;;;;;;7360574;19;20010;-61
2022/06/26 06:57:56;;;;;;;1.10;0.70;;;23.40;1.00;;;;;;7362035;19;20018;-60
2022/06/26 07:00:26;;;;;;;1.00;0.95;;;23.50;1.00;;;;;;7362796;19;20074;-60
2022/06/26 07:03:02;;;;;;;1.70;0.70;;;23.30;1.00;;;;;;7363122;19;20045;-60
2022/06/26 07:05:32;;;;;;;0.85;0.80;;;23.60;1.00;;;;;;7362500;19;20018;-60
2022/06/26 07:08:02;;;;;;;1.00;0.80;;;23.20;1.00;;;;;;7382158;19;20021;-60
2022/06/26 07:10:35;;;;;;;0.88;0.80;;;23.70;1.00;;;;;;7360346;19;20082;-60
2022/06/26 07:13:05;;;;;;;0.82;0.82;;;23.50;1.00;;;;;;7361733;19;20430;-60
2022/06/26 07:15:35;;;;;;;0.65;0.63;;;22.80;1.00;;;;;;7362786;19;20014;-60
2022/06/26 07:18:05;;;;;;;1.10;0.70;;;22.90;1.00;;;;;;7361900;19;20070;-60
2022/06/26 07:20:35;;;;;;;0.93;0.70;;;23.00;1.00;;;;;;7364624;19;20014;-60
2022/06/26 07:23:05;;;;;;;0.80;0.77;;;23.00;1.00;;;;;;7382658;19;20011;-61
2022/06/26 07:25:38;;;;;;;2.60;0.90;;;23.40;1.00;;;;;;7361565;19;20029;-60
2022/06/26 07:28:08;;;;;;;1.33;0.80;;;23.40;1.00;;;;;;7360973;19;20010;-61
2022/06/26 07:30:38;;;;;;;0.75;0.52;;;23.30;1.00;;;;;;7363772;19;20015;-61
2022/06/26 07:34:12;;;;;;;2.25;0.80;;;22.90;1.00;;;;;;7361087;19;20010;-62
2022/06/26 07:36:05;;;;;;;1.25;0.80;;;22.90;1.00;;;;;;7363221;19;20015;-61
2022/06/26 07:38:35;;;;;;;1.73;1.10;;;22.90;1.00;;;;;;7360297;19;20105;-61
2022/06/26 07:41:08;;;;;;;1.00;0.80;;;23.00;1.00;;;;;;7386237;19;20052;-62
2022/06/26 07:43:38;;;;;;;1.02;0.80;;;23.30;1.00;;;;;;7358796;19;20021;-61
2022/06/26 07:46:08;;;;;;;1.70;0.90;;;22.70;1.00;;;;;;7362882;19;20074;-60
2022/06/26 07:48:38;;;;;;;1.23;0.80;;;22.60;1.00;;;;;;7360850;19;20018;-62
2022/06/26 07:51:08;;;;;;;1.17;0.93;;;22.90;1.00;;;;;;7361868;19;20109;-61
2022/06/26 07:53:38;;;;;;;1.00;0.73;;;22.80;1.00;;;;;;7357315;19;20023;-61
2022/06/26 07:56:11;;;;;;;1.35;0.95;;;23.00;1.00;;;;;;7382001;19;20117;-61
2022/06/26 07:58:41;;;;;;;2.10;0.70;;;23.10;1.00;;;;;;7358019;19;20021;-61
2022/06/26 08:01:11;;;;;;;5.70;1.02;;;23.50;1.00;;;;;;7362854;19;20393;-61
2022/06/26 08:03:46;;;;;;;1.27;0.88;;;23.00;1.00;;;;;;7358301;19;20375;-61
2022/06/26 08:06:16;;;;;;;1.20;0.80;;;23.00;1.00;;;;;;7361690;19;20121;-60
2022/06/26 08:08:46;;;;;;;1.10;1.00;;;22.80;1.00;;;;;;7358443;19;20019;-60
2022/06/26 08:11:19;;;;;;;1.25;0.80;;;23.00;1.00;;;;;;7384419;19;20025;-59
2022/06/26 08:13:49;;;;;;;1.77;1.40;;;23.00;1.00;;;;;;7358728;19;20017;-61
2022/06/26 08:16:18;;;;;;;2.42;1.00;;;23.20;1.00;;;;;;7361154;19;20017;-61
2022/06/26 08:18:49;;;;;;;1.85;0.68;;;23.30;1.00;;;;;;7358952;19;20526;-61
2022/06/26 08:24:01;;;;;;;1.38;0.98;;;23.10;1.00;;;;;;7357876;19;20014;-61
2022/06/26 08:26:33;;;;;;;1.00;0.80;;;23.10;1.00;;;;;;7360025;19;20025;-61
2022/06/26 08:29:04;;;;;;;1.48;0.80;;;23.60;1.00;;;;;;7377944;19;20018;-61
2022/06/26 08:31:33;;;;;;;0.90;0.70;;;23.40;1.00;;;;;;7357945;19;20097;-61
2022/06/26 08:34:03;;;;;;;1.73;0.90;;;23.10;1.00;;;;;;7358069;19;20836;-61
2022/06/26 08:36:33;;;;;;;1.85;0.70;;;24.00;1.00;;;;;;7360938;19;20010;-61
2022/06/26 08:39:05;;;;;;;2.08;0.90;;;23.80;1.00;;;;;;7358650;19;20018;-62
2022/06/26 08:41:42;;;;;;;1.85;0.90;;;23.80;1.00;;;;;;7358797;19;20392;-60
2022/06/26 08:44:12;;;;;;;1.55;0.98;;;23.90;1.00;;;;;;7381154;19;20046;-61
2022/06/26 08:46:44;;;;;;;1.00;0.90;;;23.90;1.00;;;;;;7360443;19;20082;-60
2022/06/26 08:49:19;;;;;;;1.10;1.00;;;24.10;1.00;;;;;;7356226;19;20014;-61
2022/06/26 08:51:50;;;;;;;1.55;1.00;;;24.00;1.00;;;;;;7358351;19;20014;-61
2022/06/26 08:54:22;;;;;;;1.33;1.02;;;23.60;1.00;;;;;;7358669;19;20017;-62
2022/06/26 08:56:55;;;;;;;2.63;1.00;;;24.00;1.00;;;;;;7357545;19;20015;-59
2022/06/26 08:59:26;;;;;;;1.30;1.00;;;24.50;1.00;;;;;;7369544;19;20119;-62
2022/06/26 09:01:56;;;;;;;1.45;0.90;;;24.50;1.00;;;;;;7379920;19;20007;-61
2022/06/26 09:04:26;;;;;;;1.77;1.05;;;24.20;1.00;;;;;;7357151;19;20015;-61
2022/06/26 09:06:56;;;;;;;1.30;0.95;;;24.10;1.00;;;;;;7358270;19;20020;-61
2022/06/26 09:09:28;;;;;;;1.38;1.02;;;24.20;1.00;;;;;;7358816;19;20006;-60
2022/06/26 09:12:03;;;;;;;0.95;0.88;;;23.80;1.00;;;;;;7357690;19;20565;-62
2022/06/26 09:14:33;;;;;;;1.05;0.88;;;24.80;1.00;;;;;;7357544;19;20498;-62
2022/06/26 09:17:04;;;;;;;3.53;0.90;;;24.60;1.00;;;;;;7378125;19;20471;-61
2022/06/26 09:19:36;;;;;;;0.90;0.80;;;24.60;1.00;;;;;;7358112;19;20030;-61
2022/06/26 09:22:10;;;;;;;1.88;0.98;;;24.10;1.00;;;;;;7356913;19;20021;-61
2022/06/26 09:24:42;;;;;;;1.42;0.70;;;24.40;1.00;;;;;;7357707;19;20010;-62
2022/06/26 09:27:16;;;;;;;2.05;0.80;;;24.50;1.00;;;;;;7355017;19;20018;-61
2022/06/26 09:29:52;;;;;;;1.00;0.70;;;24.60;1.00;;;;;;7360019;19;20081;-60
2022/06/26 09:32:23;;;;;;;2.28;1.02;;;24.90;1.00;;;;;;7378843;19;20079;-60
2022/06/26 09:34:55;;;;;;;0.85;0.85;;;24.90;1.00;;;;;;7361900;19;20010;-61
2022/06/26 09:37:26;;;;;;;1.20;0.88;;;25.20;1.00;;;;;;7361759;19;20086;-60
2022/06/26 09:40:18;;;;;;;1.73;0.95;;;25.00;1.00;;;;;;7365776;19;20011;-61
2022/06/26 09:42:50;;;;;;;1.83;0.90;;;24.70;1.00;;;;;;7363534;19;20010;-61
2022/06/26 09:45:20;;;;;;;2.35;0.90;;;24.70;1.00;;;;;;7362026;19;20015;-60
2022/06/26 09:47:51;;;;;;;1.63;0.93;;;24.80;1.00;;;;;;7361742;19;20076;-62
2022/06/26 09:50:21;;;;;;;1.83;0.70;;;25.00;1.00;;;;;;7386929;19;20021;-60
2022/06/26 09:52:51;;;;;;;1.38;0.70;;;24.70;1.00;;;;;;7363140;19;20031;-61
2022/06/26 09:55:21;;;;;;;1.70;0.90;;;25.50;1.00;;;;;;7363134;19;20476;-61
2022/06/26 09:57:54;;;;;;;1.58;0.70;;;25.30;1.00;;;;;;7362427;19;20081;-61
2022/06/26 10:00:24;;;;;;;0.80;0.73;;;25.30;1.00;;;;;;7365144;19;20011;-61
2022/06/26 10:08:23;;;;;;;1.20;0.90;;;25.80;1.00;;;;;;7383302;19;20026;-62
2022/06/26 10:10:54;;;;;;;1.07;0.80;;;26.20;1.00;;;;;;7363640;19;20035;-61
2022/06/26 10:13:33;;;;;;;0.95;0.70;;;25.70;1.00;;;;;;7359720;19;20901;-61
2022/06/26 10:16:17;;;;;;;1.08;0.90;;;25.50;1.00;;;;;;7363840;19;20060;-61
2022/06/26 10:19:05;;;;;;;0.80;0.80;;;25.40;1.00;;;;;;7362248;19;20465;-61
2022/06/26 10:21:38;;;;;;;1.02;0.75;;;24.90;1.00;;;;;;7362909;19;20494;-61
2022/06/26 10:24:09;;;;;;;4.28;1.05;;;25.20;1.00;;;;;;7363611;19;20410;-61
2022/06/26 10:26:39;;;;;;;0.70;0.70;;;25.40;1.00;;;;;;7363706;19;20014;-61
2022/06/26 10:29:12;;;;;;;1.20;0.90;;;25.20;1.00;;;;;;7386100;19;20006;-61
2022/06/26 10:31:50;;;;;;;1.67;1.00;;;25.60;1.00;;;;;;7362893;19;20013;-62
2022/06/26 10:34:22;;;;;;;1.52;0.70;;;25.80;1.00;;;;;;7363537;19;20011;-61
2022/06/26 10:37:06;;;;;;;1.90;0.82;;;25.60;1.00;;;;;;7363304;19;20078;-62
2022/06/26 10:39:49;;;;;;;0.80;0.80;;;25.80;1.00;;;;;;7363870;19;20093;-61
2022/06/26 10:45:14;;;;;;;0.77;0.60;;;25.30;1.00;;;;;;7361142;19;20020;-61
2022/06/26 10:47:49;;;;;;;1.08;0.98;;;25.30;1.00;;;;;;7361021;19;20016;-61
2022/06/26 10:50:37;;;;;;;0.70;0.70;;;25.80;1.00;;;;;;7387037;19;20027;-61
2022/06/26 10:53:22;;;;;;;1.27;0.85;;;25.90;1.00;;;;;;7362131;19;20386;-59
2022/06/26 10:55:54;;;;;;;2.10;1.00;;;25.90;1.00;;;;;;7364246;19;20010;-61
2022/06/26 10:58:29;;;;;;;1.30;0.77;;;25.90;1.00;;;;;;7361956;19;20074;-62
2022/06/26 11:01:04;;;;;;;1.27;0.82;;;26.30;1.00;;;;;;7363235;19;20466;-61
2022/06/26 11:03:37;;;;;;;0.75;0.75;;;26.00;1.00;;;;;;7359122;19;20019;-62
2022/06/26 11:06:09;;;;;;;1.73;0.70;;;26.10;1.00;;;;;;7363139;19;20380;-63
2022/06/26 11:08:49;;;;;;;1.38;0.80;;;26.20;1.00;;;;;;7360564;19;20086;-61
2022/06/26 11:11:22;;;;;;;1.08;0.95;;;25.90;1.00;;;;;;7386505;19;20366;-62
2022/06/26 11:13:57;;;;;;;0.93;0.77;;;26.00;1.00;;;;;;7361889;19;20015;-61
2022/06/26 11:16:35;;;;;;;1.10;0.80;;;25.90;1.00;;;;;;7361195;19;20514;-61
2022/06/26 11:19:07;;;;;;;1.35;0.90;;;25.60;1.00;;;;;;7361065;19;20483;-61
2022/06/26 11:21:37;;;;;;;1.55;0.80;;;25.70;1.00;;;;;;7361207;19;20590;-62
2022/06/26 11:24:07;;;;;;;1.50;0.85;;;26.20;1.00;;;;;;7362786;19;20085;-62
2022/06/26 11:26:37;;;;;;;1.52;0.93;;;26.20;1.00;;;;;;7363552;19;20121;-61
2022/06/26 11:29:08;;;;;;;2.17;0.95;;;26.10;1.00;;;;;;7382331;19;20381;-61
2022/06/26 11:31:48;;;;;;;1.15;0.80;;;26.00;1.00;;;;;;7360054;19;20055;-61
2022/06/26 11:34:20;;;;;;;1.58;0.70;;;26.20;1.00;;;;;;7361131;19;20006;-61
2022/06/26 11:36:53;;;;;;;1.60;0.93;;;26.20;1.00;;;;;;7360628;19;20003;-61
2022/06/26 11:39:39;;;;;;;1.38;0.70;;;26.50;1.00;;;;;;7362821;19;20053;-60
2022/06/26 11:42:18;;;;;;;1.00;0.90;;;26.30;1.00;;;;;;7361096;19;20015;-63
2022/06/26 11:44:52;;;;;;;1.23;0.80;;;26.30;1.00;;;;;;7361582;19;20506;-60
2022/06/26 11:47:25;;;;;;;1.30;0.70;;;27.00;1.00;;;;;;7379916;19;20031;-62
2022/06/26 11:49:54;;;;;;;1.30;0.77;;;27.00;1.00;;;;;;7363326;19;20459;-61
2022/06/26 11:52:25;;;;;;;0.80;0.80;;;27.30;1.00;;;;;;7359492;19;20010;-60
2022/06/26 11:55:01;;;;;;;1.83;0.90;;;26.90;1.00;;;;;;7359775;19;20162;-61
2022/06/26 11:57:39;;;;;;;1.13;0.75;;;26.60;1.00;;;;;;7359063;19;20579;-61
2022/06/26 12:00:13;;;;;;;1.58;0.80;;;27.00;1.00;;;;;;7362038;19;20533;-61
2022/06/26 12:02:48;;;;;;;0.80;0.80;;;27.70;1.00;;;;;;7360085;19;20079;-61
2022/06/26 12:05:30;;;;;;;0.82;0.80;;;27.50;1.00;;;;;;7381712;19;20022;-61
2022/06/26 12:08:00;;;;;;;1.35;0.88;;;27.70;1.00;;;;;;7359397;19;20006;-61
2022/06/26 12:10:32;;;;;;;3.42;0.82;;;27.10;1.00;;;;;;7360786;19;20014;-61
2022/06/26 12:13:04;;;;;;;1.52;0.77;;;27.30;1.00;;;;;;7360418;19;20010;-63
2022/06/26 12:15:36;;;;;;;0.60;0.60;;;27.30;1.00;;;;;;7359374;19;20112;-62
2022/06/26 12:18:09;;;;;;;0.70;0.70;;;26.60;1.00;;;;;;7359051;19;20010;-61
2022/06/26 12:20:41;;;;;;;1.23;0.90;;;27.50;1.00;;;;;;7362286;19;20014;-60
2022/06/26 12:23:12;;;;;;;1.35;0.90;;;27.00;1.00;;;;;;7381088;19;20363;-61
2022/06/26 12:25:45;;;;;;;0.90;0.80;;;27.00;1.00;;;;;;7361482;19;20069;-60
2022/06/26 12:28:26;;;;;;;0.75;0.70;;;27.10;1.00;;;;;;7358335;19;20026;-61
2022/06/26 12:30:56;;;;;;;1.85;0.70;;;27.20;1.00;;;;;;7361649;19;20007;-60
2022/06/26 12:33:28;;;;;;;0.85;0.85;;;27.30;1.00;;;;;;7355493;19;20007;-61
2022/06/26 12:35:58;;;;;;;1.23;1.05;;;27.60;1.00;;;;;;7361091;19;20010;-62
2022/06/26 12:38:29;;;;;;;0.88;0.82;;;27.00;1.00;;;;;;7359405;19;20483;-61
2022/06/26 12:40:59;;;;;;;1.13;0.95;;;28.00;1.00;;;;;;7381693;19;20031;-60
2022/06/26 12:43:28;;;;;;;1.23;0.73;;;27.70;1.00;;;;;;7356876;19;20021;-62
2022/06/26 12:45:59;;;;;;;0.80;0.80;;;27.70;1.00;;;;;;7360463;19;20387;-61
2022/06/26 12:48:31;;;;;;;1.25;0.75;;;27.40;1.00;;;;;;7358155;19;20069;-61
2022/06/26 12:51:01;;;;;;;0.90;0.80;;;27.10;1.00;;;;;;7360343;19;20010;-60
2022/06/26 12:53:31;;;;;;;1.27;0.90;;;27.30;1.00;;;;;;7355809;19;20006;-63
2022/06/26 12:56:01;;;;;;;0.85;0.77;;;27.50;1.00;;;;;;7382257;19;20025;-61
2022/06/26 12:58:31;;;;;;;1.73;1.00;;;27.80;1.00;;;;;;7358344;19;20006;-61
2022/06/26 13:01:01;;;;;;;1.77;0.70;;;28.00;1.00;;;;;;7360257;19;20362;-61
2022/06/26 13:03:33;;;;;;;1.13;0.70;;;27.60;1.00;;;;;;7355740;19;20034;-62
2022/06/26 13:06:03;;;;;;;1.27;0.80;;;27.50;1.00;;;;;;7360103;19;20474;-61
2022/06/26 13:08:34;;;;;;;1.63;0.80;;;27.90;1.00;;;;;;7358607;19;20016;-62
2022/06/26 13:13:47;;;;;;;1.05;0.80;;;27.80;1.00;;;;;;7363646;19;20474;-61
2022/06/26 13:16:36;;;;;;;4.32;0.90;;;27.60;1.00;;;;;;7364571;19;20495;-61
2022/06/26 13:19:09;;;;;;;2.35;0.90;;;27.60;1.00;;;;;;7365648;19;20480;-61
2022/06/26 13:21:40;;;;;;;1.10;0.80;;;27.30;1.00;;;;;;7365082;19;20015;-63
2022/06/26 13:24:10;;;;;;;1.30;0.85;;;27.10;1.00;;;;;;7365580;19;20025;-62
2022/06/26 13:26:41;;;;;;;0.80;0.80;;;27.20;1.00;;;;;;7366090;19;20121;-60
2022/06/26 13:29:11;;;;;;;1.13;0.70;;;27.80;1.00;;;;;;7386244;19;20010;-61
2022/06/26 13:31:41;;;;;;;0.82;0.80;;;27.70;1.00;;;;;;7363060;19;20021;-61
2022/06/26 13:34:14;;;;;;;4.72;1.00;;;27.50;1.00;;;;;;7366015;19;20014;-62
2022/06/26 13:36:44;;;;;;;1.35;0.80;;;27.50;1.00;;;;;;7367237;19;20014;-60
2022/06/26 13:39:14;;;;;;;0.80;0.73;;;27.60;1.00;;;;;;7366920;19;20626;-60
2022/06/26 13:41:44;;;;;;;0.85;0.75;;;27.60;1.00;;;;;;7364576;19;20030;-60
2022/06/26 13:44:14;;;;;;;1.15;0.82;;;27.30;1.00;;;;;;7387143;19;20078;-61
2022/06/26 13:46:43;;;;;;;1.05;0.90;;;27.90;1.00;;;;;;7364127;19;20010;-61